Terminal Aerodrome Forecast
Issued by NWS

Home | Current Version | Previous Version | Text Only | Print | Product List | Glossary On
Versions: 1 2 3 4 5 6 7 8 9 10 11 12
000
FTUS42 KGSP 202300
TAFGMU
TAF
KGMU 202332Z 2100/2124 22004KT P6SM SCT120 BKN250
     FM210800 28003KT P6SM SCT250
     FM211800 26007KT P6SM FEW250
     FM212200 30006KT P6SM FEW250=

USA.gov is the U.S. government's official web portal to all federal, state and local government web resources and services.